createdAt,value
2022-10-24T00:01:13.046Z,75.23
2022-10-24T00:03:40.346Z,74.92
2022-10-24T00:06:09.682Z,75.05
2022-10-24T00:08:38.366Z,75.47
2022-10-24T00:11:20.866Z,75.42
2022-10-24T00:13:48.034Z,76.09
2022-10-24T00:16:14.591Z,76.05
2022-10-24T00:18:41.226Z,75.64
2022-10-24T00:21:08.507Z,75.94
2022-10-24T00:23:35.826Z,75.83
2022-10-24T00:26:04.041Z,75.69
2022-10-24T00:28:34.101Z,75.27
2022-10-24T00:31:01.725Z,75.35
2022-10-24T00:33:28.292Z,75.85
2022-10-24T00:35:54.830Z,76.06
2022-10-24T00:38:21.452Z,76.11
2022-10-24T00:40:48.232Z,75.43
2022-10-24T00:43:24.179Z,75.03
2022-10-24T00:45:55.033Z,75.57
2022-10-24T00:48:52.793Z,74.91
2022-10-24T00:51:24.506Z,76.35
2022-10-24T00:56:36.077Z,76.01
2022-10-24T00:59:07.105Z,75.06
2022-10-24T01:01:34.241Z,75.09
2022-10-24T01:04:01.537Z,74.94
2022-10-24T01:07:07.629Z,74.58
2022-10-24T01:09:45.379Z,75.08
2022-10-24T01:12:30.750Z,74.59
2022-10-24T01:15:20.800Z,74.68
2022-10-24T01:17:55.646Z,74.26
2022-10-24T01:20:47.067Z,74.18
2022-10-24T01:23:33.637Z,74.84
2022-10-24T01:26:35.823Z,74.87
2022-10-24T01:29:50.748Z,74.88
2022-10-24T01:32:31.695Z,75.09
2022-10-24T01:35:21.287Z,75.09
2022-10-24T01:38:03.675Z,75.18
2022-10-24T01:40:40.480Z,75.51
2022-10-24T01:43:13.154Z,75.36
2022-10-24T01:45:46.935Z,74.83
2022-10-24T01:48:19.895Z,75.01
2022-10-24T01:50:51.706Z,75.14
2022-10-24T01:53:22.547Z,74.77
2022-10-24T01:55:53.327Z,74.90
2022-10-24T01:58:19.749Z,74.83
2022-10-24T02:00:50.718Z,74.50
2022-10-24T02:04:05.954Z,74.36
2022-10-24T02:06:39.631Z,74.91
2022-10-24T02:09:15.733Z,74.41
2022-10-24T02:11:46.909Z,74.84
2022-10-24T02:14:23.099Z,74.29
2022-10-24T02:16:50.346Z,74.48
2022-10-24T02:19:18.103Z,75.16
2022-10-24T02:22:04.386Z,74.64
2022-10-24T02:24:53.672Z,74.69
2022-10-24T02:27:32.432Z,75.71
2022-10-24T02:30:14.134Z,74.79
2022-10-24T02:32:46.659Z,75.39
2022-10-24T02:35:17.720Z,75.17
2022-10-24T02:37:54.991Z,75.54
2022-10-24T02:40:23.287Z,75.08
2022-10-24T02:42:55.592Z,75.13
2022-10-24T02:45:23.985Z,75.19
2022-10-24T02:47:57.641Z,75.24
2022-10-24T02:50:24.904Z,74.84
2022-10-24T02:52:51.479Z,74.65
2022-10-24T02:55:18.055Z,74.04
2022-10-24T02:57:44.498Z,74.63
2022-10-24T03:00:11.933Z,74.64
2022-10-24T03:02:38.396Z,74.51
2022-10-24T03:05:05.255Z,74.63
2022-10-24T03:07:31.872Z,74.56
2022-10-24T03:09:58.349Z,74.15
2022-10-24T03:12:24.934Z,74.51
2022-10-24T03:14:51.410Z,74.13
2022-10-24T03:17:17.846Z,74.42
2022-10-24T03:19:45.110Z,74.08
2022-10-24T03:22:11.766Z,74.42
2022-10-24T03:24:44.342Z,74.79
2022-10-24T03:27:21.578Z,75.25
2022-10-24T03:29:48.070Z,75.12
2022-10-24T03:32:14.743Z,75.18
2022-10-24T03:34:41.273Z,75.33
2022-10-24T03:37:07.838Z,75.50
2022-10-24T03:39:34.506Z,75.39
2022-10-24T03:42:01.128Z,75.83
2022-10-24T03:44:27.696Z,76.11
2022-10-24T03:46:54.175Z,76.79
2022-10-24T03:49:20.705Z,76.62
2022-10-24T03:51:47.206Z,76.08
2022-10-24T03:54:15.194Z,76.54
2022-10-24T03:56:47.833Z,76.21
2022-10-24T03:59:14.381Z,76.24
2022-10-24T04:01:41.056Z,75.80
2022-10-24T04:04:07.822Z,75.95
2022-10-24T04:06:36.469Z,76.98
2022-10-24T04:09:04.531Z,77.39
2022-10-24T04:11:31.094Z,78.30
2022-10-24T04:13:58.885Z,77.71
2022-10-24T04:16:25.357Z,77.56
2022-10-24T04:18:51.812Z,78.92
2022-10-24T04:21:21.580Z,78.39
2022-10-24T04:23:48.493Z,77.64
2022-10-24T04:26:16.813Z,78.41
2022-10-24T04:28:46.666Z,78.40
2022-10-24T04:31:16.835Z,79.16
2022-10-24T04:33:46.474Z,78.57
2022-10-24T04:36:13.412Z,78.36
2022-10-24T04:38:41.248Z,78.17
2022-10-24T04:41:11.211Z,78.24
2022-10-24T04:43:39.970Z,78.60
2022-10-24T04:46:06.899Z,78.31
2022-10-24T04:48:33.964Z,78.44
2022-10-24T04:51:00.488Z,77.89
2022-10-24T04:53:26.923Z,78.20
2022-10-24T04:55:53.396Z,78.47
2022-10-24T04:58:20.788Z,78.52
2022-10-24T05:00:49.738Z,78.49
2022-10-24T05:03:18.508Z,77.74
2022-10-24T05:05:46.604Z,77.91
2022-10-24T05:08:13.488Z,78.23
2022-10-24T05:10:40.062Z,78.15
2022-10-24T05:13:06.947Z,77.94
2022-10-24T05:15:33.461Z,77.73
2022-10-24T05:18:00.203Z,78.10
2022-10-24T05:20:26.972Z,77.98
2022-10-24T05:22:53.497Z,77.90
2022-10-24T05:25:20.439Z,78.03
2022-10-24T05:27:46.981Z,78.06
2022-10-24T05:30:14.229Z,77.58
2022-10-24T05:32:40.849Z,77.70
2022-10-24T05:35:08.590Z,77.60
2022-10-24T05:37:35.094Z,78.42
2022-10-24T05:40:01.759Z,78.28
2022-10-24T05:42:28.219Z,77.62
2022-10-24T05:44:54.746Z,77.68
2022-10-24T05:47:22.732Z,78.39
2022-10-24T05:49:51.138Z,77.96
2022-10-24T05:52:17.592Z,77.62
2022-10-24T05:54:55.229Z,77.70
2022-10-24T05:57:29.925Z,78.28
2022-10-24T05:59:56.433Z,78.15
2022-10-24T06:02:23.412Z,78.65
2022-10-24T06:04:50.893Z,78.36
2022-10-24T06:07:18.873Z,78.61
2022-10-24T06:09:45.371Z,78.67
2022-10-24T06:12:12.894Z,78.31
2022-10-24T06:14:40.042Z,78.72
2022-10-24T06:17:09.107Z,78.84
2022-10-24T06:19:37.057Z,79.23
2022-10-24T06:22:05.849Z,78.98
2022-10-24T06:24:36.341Z,78.47
2022-10-24T06:27:03.913Z,78.70
2022-10-24T06:29:30.689Z,78.81
2022-10-24T06:31:57.261Z,78.36
2022-10-24T06:34:24.419Z,78.22
2022-10-24T06:36:50.979Z,78.46
2022-10-24T06:39:17.993Z,78.71
2022-10-24T06:41:44.659Z,78.24
2022-10-24T06:44:11.344Z,78.31
2022-10-24T06:46:38.302Z,78.28
2022-10-24T06:49:04.922Z,78.12
2022-10-24T06:51:31.637Z,77.91
2022-10-24T06:53:59.660Z,78.25
2022-10-24T06:56:26.191Z,78.12
2022-10-24T06:58:52.868Z,77.87
2022-10-24T07:01:23.269Z,78.25
2022-10-24T07:03:50.783Z,77.89
2022-10-24T07:06:25.552Z,78.00
2022-10-24T07:08:55.491Z,77.97
2022-10-24T07:11:21.974Z,78.19
2022-10-24T07:13:48.948Z,78.67
2022-10-24T07:16:16.046Z,78.27
2022-10-24T07:18:43.198Z,78.32
2022-10-24T07:21:20.799Z,77.91
2022-10-24T07:23:48.139Z,78.86
2022-10-24T07:26:16.802Z,78.81
2022-10-24T07:28:46.533Z,78.35
2022-10-24T07:31:18.060Z,78.00
2022-10-24T07:33:44.506Z,77.57
2022-10-24T07:36:19.854Z,77.50
2022-10-24T07:38:48.379Z,77.28
2022-10-24T07:41:15.318Z,77.27
2022-10-24T07:43:41.899Z,77.27
2022-10-24T07:46:12.886Z,76.76
2022-10-24T07:48:42.246Z,76.58
2022-10-24T07:51:14.027Z,76.71
2022-10-24T07:53:41.888Z,76.94
2022-10-24T07:56:13.106Z,76.90
2022-10-24T07:58:40.103Z,76.61
2022-10-24T08:01:20.219Z,76.47
2022-10-24T08:03:47.499Z,76.52
2022-10-24T08:06:18.715Z,76.53
2022-10-24T08:08:46.293Z,76.75
2022-10-24T08:11:21.495Z,76.65
2022-10-24T08:13:49.776Z,76.65
2022-10-24T08:16:18.442Z,76.37
2022-10-24T08:18:45.240Z,76.17
2022-10-24T08:21:15.103Z,75.86
2022-10-24T08:23:46.635Z,75.92
2022-10-24T08:26:17.247Z,75.72
2022-10-24T08:28:46.214Z,76.28
2022-10-24T08:31:30.822Z,75.46
2022-10-24T08:33:57.290Z,75.27
2022-10-24T08:36:30.839Z,74.95
2022-10-24T08:38:58.867Z,74.79
2022-10-24T08:41:38.798Z,74.28
2022-10-24T08:44:25.361Z,73.93
2022-10-24T08:47:02.798Z,74.23
2022-10-24T08:49:59.468Z,72.92
2022-10-24T08:52:43.472Z,73.55
2022-10-24T08:55:30.874Z,73.20
2022-10-24T08:58:14.448Z,73.37
2022-10-24T09:00:46.272Z,72.78
2022-10-24T09:03:57.638Z,72.79
2022-10-24T09:06:24.779Z,73.00
2022-10-24T09:09:01.060Z,73.37
2022-10-24T09:11:51.828Z,72.92
2022-10-24T09:14:31.351Z,73.08
2022-10-24T09:17:14.467Z,72.56
2022-10-24T09:19:49.063Z,72.79
2022-10-24T09:22:17.131Z,72.60
2022-10-24T09:25:01.741Z,72.11
2022-10-24T09:27:35.391Z,72.10
2022-10-24T09:30:02.614Z,72.26
2022-10-24T09:32:33.749Z,71.62
2022-10-24T09:35:11.970Z,71.30
2022-10-24T09:37:46.267Z,70.50
2022-10-24T09:40:24.180Z,70.13
2022-10-24T09:43:10.798Z,69.91
2022-10-24T09:45:45.078Z,70.24
2022-10-24T09:48:38.238Z,69.80
2022-10-24T09:51:07.959Z,70.45
2022-10-24T09:53:40.941Z,70.16
2022-10-24T09:56:14.326Z,70.20
2022-10-24T09:58:42.247Z,69.84
2022-10-24T10:01:14.619Z,69.89
2022-10-24T10:03:41.818Z,69.71
2022-10-24T10:06:19.995Z,68.54
2022-10-24T10:08:54.179Z,69.04
2022-10-24T10:11:35.055Z,67.65
2022-10-24T10:14:24.039Z,68.41
2022-10-24T10:17:06.738Z,68.01
2022-10-24T10:19:38.137Z,67.31
2022-10-24T10:22:23.297Z,67.37
2022-10-24T10:24:50.594Z,67.07
2022-10-24T10:27:41.745Z,65.01
2022-10-24T10:30:17.282Z,66.52
2022-10-24T10:36:26.326Z,64.83
2022-10-24T10:39:25.922Z,63.95
2022-10-24T10:42:13.627Z,65.70
2022-10-24T10:45:03.148Z,66.12
2022-10-24T10:47:54.039Z,63.97
2022-10-24T10:50:55.830Z,63.48
2022-10-24T10:53:55.383Z,63.77
2022-10-24T10:56:45.516Z,63.93
2022-10-24T10:59:57.039Z,62.75
2022-10-24T11:02:53.209Z,64.18
2022-10-24T11:05:44.739Z,63.04
2022-10-24T11:08:42.624Z,62.53
2022-10-24T11:11:24.589Z,62.38
2022-10-24T11:13:58.985Z,61.97
2022-10-24T11:16:29.444Z,62.01
2022-10-24T11:19:04.975Z,61.68
2022-10-24T11:21:35.280Z,61.30
2022-10-24T11:24:16.793Z,60.07
2022-10-24T11:26:58.388Z,60.16
2022-10-24T11:29:53.951Z,59.35
2022-10-24T11:32:42.730Z,60.53
2022-10-24T11:35:28.822Z,60.36
2022-10-24T11:38:21.844Z,59.81
2022-10-24T11:40:58.893Z,59.98
2022-10-24T11:43:40.472Z,58.89
2022-10-24T11:46:38.931Z,60.18
2022-10-24T11:49:21.711Z,60.11
2022-10-24T11:52:12.661Z,59.78
2022-10-24T11:54:53.324Z,59.32
2022-10-24T11:57:28.785Z,59.33
2022-10-24T11:59:58.623Z,59.40
2022-10-24T12:03:10.172Z,56.71
2022-10-24T12:05:59.540Z,58.15
2022-10-24T12:09:21.436Z,57.91
2022-10-24T12:12:45.109Z,57.38
2022-10-24T12:15:32.230Z,57.96
2022-10-24T12:18:23.684Z,57.16
2022-10-24T12:20:54.156Z,57.58
2022-10-24T12:23:31.295Z,57.25
2022-10-24T12:26:24.881Z,55.80
2022-10-24T12:29:07.007Z,54.76
2022-10-24T12:31:37.551Z,56.57
2022-10-24T12:34:15.994Z,54.34
2022-10-24T12:37:05.976Z,53.24
2022-10-24T12:39:45.813Z,55.91
2022-10-24T12:42:19.986Z,54.80
2022-10-24T12:45:11.020Z,55.40
2022-10-24T12:48:03.853Z,55.39
2022-10-24T12:50:30.207Z,55.56
2022-10-24T12:52:56.589Z,55.22
2022-10-24T12:55:39.803Z,54.49
2022-10-24T12:58:36.186Z,54.75
2022-10-24T13:01:22.125Z,55.58
2022-10-24T13:03:53.223Z,55.78
2022-10-24T13:07:02.879Z,55.13
2022-10-24T13:09:40.338Z,56.94
2022-10-24T13:12:45.315Z,57.11
2022-10-24T13:15:39.337Z,56.43
2022-10-24T13:18:29.103Z,56.38
2022-10-24T13:21:21.186Z,55.50
2022-10-24T13:23:50.199Z,56.41
2022-10-24T13:26:48.724Z,56.22
2022-10-24T13:29:24.258Z,56.60
2022-10-24T13:32:18.680Z,56.09
2022-10-24T13:34:50.077Z,57.23
2022-10-24T13:37:29.062Z,56.28
2022-10-24T13:40:09.872Z,56.64
2022-10-24T13:42:48.567Z,56.66
2022-10-24T13:45:52.198Z,56.07
2022-10-24T13:48:27.106Z,56.99
2022-10-24T13:51:19.990Z,55.80
2022-10-24T13:53:57.398Z,55.90
2022-10-24T13:56:23.866Z,56.90
2022-10-24T13:58:50.849Z,57.04
2022-10-24T14:01:28.099Z,56.31
2022-10-24T14:03:57.207Z,56.56
2022-10-24T14:06:33.584Z,56.57
2022-10-24T14:09:09.217Z,56.64
2022-10-24T14:11:49.184Z,56.70
2022-10-24T14:14:35.980Z,55.19
2022-10-24T14:17:23.582Z,56.50
2022-10-24T14:20:13.993Z,56.81
2022-10-24T14:22:41.382Z,57.04
2022-10-24T14:25:25.106Z,56.11
2022-10-24T14:27:59.093Z,56.26
2022-10-24T14:30:34.265Z,56.57
2022-10-24T14:33:14.107Z,56.53
2022-10-24T14:35:41.935Z,56.69
2022-10-24T14:38:16.202Z,55.99
2022-10-24T14:40:45.087Z,56.72
2022-10-24T14:46:13.802Z,56.31
2022-10-24T14:48:48.196Z,56.28
2022-10-24T14:51:39.231Z,56.28
2022-10-24T14:54:19.218Z,56.26
2022-10-24T14:56:46.466Z,56.74
2022-10-24T14:59:36.343Z,57.35
2022-10-24T15:02:07.620Z,58.26
2022-10-24T15:04:45.627Z,58.44
2022-10-24T15:07:22.496Z,59.61
2022-10-24T15:10:13.086Z,60.62
2022-10-24T15:12:47.616Z,61.30
2022-10-24T15:15:54.928Z,62.15
2022-10-24T15:18:31.267Z,62.61
2022-10-24T15:21:14.035Z,62.80
2022-10-24T15:23:58.104Z,62.90
2022-10-24T15:26:44.744Z,63.67
2022-10-24T15:29:14.095Z,63.22
2022-10-24T15:31:44.111Z,64.08
2022-10-24T15:34:20.841Z,63.92
2022-10-24T15:36:51.441Z,63.19
2022-10-24T15:39:24.808Z,63.54
2022-10-24T15:41:52.511Z,63.61
2022-10-24T15:44:29.306Z,63.46
2022-10-24T15:46:56.033Z,63.66
2022-10-24T15:49:22.805Z,63.55
2022-10-24T15:51:50.764Z,63.50
2022-10-24T15:54:20.941Z,63.05
2022-10-24T15:56:49.128Z,63.00
2022-10-24T15:59:15.768Z,63.70
2022-10-24T16:01:51.571Z,63.60
2022-10-24T16:04:20.036Z,63.13
2022-10-24T16:06:46.503Z,62.72
2022-10-24T16:09:17.996Z,62.76
2022-10-24T16:11:45.073Z,62.53
2022-10-24T16:14:16.269Z,62.39
2022-10-24T16:16:43.291Z,63.49
2022-10-24T16:19:10.250Z,64.03
2022-10-24T16:21:39.019Z,64.38
2022-10-24T16:24:06.912Z,64.32
2022-10-24T16:26:34.383Z,64.01
2022-10-24T16:29:01.122Z,64.10
2022-10-24T16:31:27.632Z,63.98
2022-10-24T16:33:54.141Z,63.86
2022-10-24T16:36:23.807Z,63.54
2022-10-24T16:38:52.432Z,63.63
2022-10-24T16:41:22.755Z,64.38
2022-10-24T16:43:50.366Z,64.43
2022-10-24T16:46:20.159Z,64.14
2022-10-24T16:48:47.548Z,64.07
2022-10-24T16:51:18.268Z,64.20
2022-10-24T16:53:45.579Z,64.21
2022-10-24T16:56:15.419Z,64.72
2022-10-24T16:58:43.153Z,64.43
2022-10-24T17:01:13.675Z,64.60
2022-10-24T17:03:40.889Z,64.99
2022-10-24T17:06:08.116Z,64.47
2022-10-24T17:08:34.857Z,65.12
2022-10-24T17:11:01.486Z,65.08
2022-10-24T17:13:29.490Z,65.31
2022-10-24T17:15:56.837Z,65.18
2022-10-24T17:18:25.359Z,65.11
2022-10-24T17:20:58.178Z,65.13
2022-10-24T17:23:26.056Z,64.76
2022-10-24T17:25:53.366Z,64.55
2022-10-24T17:28:21.337Z,64.69
2022-10-24T17:30:48.274Z,64.60
2022-10-24T17:33:14.925Z,65.14
2022-10-24T17:35:50.648Z,65.05
2022-10-24T17:38:40.090Z,65.24
2022-10-24T17:41:16.186Z,65.85
2022-10-24T17:43:42.967Z,65.80
2022-10-24T17:46:12.778Z,66.86
2022-10-24T17:48:39.880Z,66.85
2022-10-24T17:51:06.710Z,67.09
2022-10-24T17:53:33.227Z,66.92
2022-10-24T17:55:59.779Z,67.12
2022-10-24T17:58:26.361Z,67.02
2022-10-24T18:00:52.984Z,66.90
2022-10-24T18:03:20.084Z,66.87
2022-10-24T18:05:46.961Z,67.08
2022-10-24T18:08:14.440Z,67.29
2022-10-24T18:10:41.590Z,67.11
2022-10-24T18:13:08.520Z,67.52
2022-10-24T18:15:36.522Z,67.31
2022-10-24T18:18:03.565Z,67.48
2022-10-24T18:20:31.974Z,67.83
2022-10-24T18:22:59.644Z,68.21
2022-10-24T18:25:27.114Z,67.84
2022-10-24T18:27:53.966Z,67.87
2022-10-24T18:30:20.424Z,67.84
2022-10-24T18:32:47.267Z,67.72
2022-10-24T18:35:15.258Z,67.43
2022-10-24T18:37:41.753Z,67.69
2022-10-24T18:40:09.374Z,67.38
2022-10-24T18:42:49.962Z,67.11
2022-10-24T18:45:22.312Z,67.27
2022-10-24T18:47:50.728Z,67.58
2022-10-24T18:50:22.300Z,67.27
2022-10-24T18:52:55.753Z,67.21
2022-10-24T18:55:30.626Z,67.06
2022-10-24T18:57:58.336Z,67.50
2022-10-24T19:00:29.505Z,66.99
2022-10-24T19:03:37.001Z,67.59
2022-10-24T19:06:24.116Z,68.55
2022-10-24T19:08:50.795Z,70.13
2022-10-24T19:11:17.624Z,68.90
2022-10-24T19:13:47.144Z,68.55
2022-10-24T19:16:27.507Z,68.59
2022-10-24T19:18:59.834Z,68.17
2022-10-24T19:21:26.639Z,67.93
2022-10-24T19:23:53.502Z,68.00
2022-10-24T19:26:20.340Z,67.77
2022-10-24T19:28:46.838Z,68.17
2022-10-24T19:31:16.316Z,68.20
2022-10-24T19:33:43.107Z,67.81
2022-10-24T19:36:09.947Z,68.19
2022-10-24T19:38:36.970Z,67.98
2022-10-24T19:41:08.112Z,68.31
2022-10-24T19:43:34.670Z,68.64
2022-10-24T19:46:18.757Z,68.44
2022-10-24T19:48:50.260Z,69.03
2022-10-24T19:51:19.331Z,69.43
2022-10-24T19:53:47.218Z,70.32
2022-10-24T19:56:26.193Z,70.42
2022-10-24T19:58:54.842Z,70.10
2022-10-24T20:01:25.625Z,70.67
2022-10-24T20:03:53.020Z,70.71
2022-10-24T20:06:19.623Z,70.26
2022-10-24T20:08:47.839Z,70.07
2022-10-24T20:11:15.946Z,70.19
2022-10-24T20:13:43.601Z,70.65
2022-10-24T20:16:13.381Z,70.49
2022-10-24T20:21:19.956Z,70.58
2022-10-24T20:23:48.177Z,70.66
2022-10-24T20:26:19.471Z,70.68
2022-10-24T20:28:49.854Z,70.86
2022-10-24T20:31:22.057Z,71.04
2022-10-24T20:33:49.127Z,71.53
2022-10-24T20:36:15.916Z,71.80
2022-10-24T20:38:42.385Z,72.04
2022-10-24T20:41:09.077Z,72.05
2022-10-24T20:43:35.617Z,71.93
2022-10-24T20:46:06.538Z,71.80
2022-10-24T20:48:34.459Z,71.85
2022-10-24T20:51:21.024Z,71.53
2022-10-24T20:53:48.002Z,71.67
2022-10-24T20:56:22.398Z,70.90
2022-10-24T20:58:54.573Z,70.73
2022-10-24T21:01:27.801Z,70.83
2022-10-24T21:03:56.561Z,71.12
2022-10-24T21:06:29.457Z,71.07
2022-10-24T21:09:00.232Z,71.06
2022-10-24T21:11:29.851Z,71.14
2022-10-24T21:13:59.699Z,70.93
2022-10-24T21:16:28.060Z,70.91
2022-10-24T21:18:55.699Z,70.99
2022-10-24T21:21:23.006Z,70.99
2022-10-24T21:23:55.067Z,70.63
2022-10-24T21:26:22.571Z,70.78
2022-10-24T21:28:49.838Z,71.05
2022-10-24T21:31:19.582Z,71.02
2022-10-24T21:33:47.356Z,71.04
2022-10-24T21:36:17.352Z,71.42
2022-10-24T21:38:51.047Z,71.50
2022-10-24T21:41:19.257Z,71.55
2022-10-24T21:43:46.349Z,71.45
2022-10-24T21:46:23.075Z,71.70
2022-10-24T21:48:51.781Z,71.90
2022-10-24T21:51:26.123Z,72.19
2022-10-24T21:54:03.764Z,71.90
2022-10-24T21:56:35.134Z,71.59
2022-10-24T21:59:05.812Z,71.31
2022-10-24T22:01:36.266Z,71.10
2022-10-24T22:04:05.249Z,71.20
2022-10-24T22:06:34.195Z,71.31
2022-10-24T22:09:01.423Z,71.54
2022-10-24T22:11:31.108Z,71.28
2022-10-24T22:13:58.108Z,71.79
2022-10-24T22:16:28.550Z,71.35
2022-10-24T22:18:56.947Z,71.53
2022-10-24T22:21:29.430Z,71.17
2022-10-24T22:24:01.938Z,71.12
2022-10-24T22:26:29.563Z,71.22
2022-10-24T22:28:56.668Z,71.33
2022-10-24T22:31:26.630Z,71.45
2022-10-24T22:33:54.294Z,71.28
2022-10-24T22:37:06.233Z,71.25
2022-10-24T22:39:33.133Z,71.69
2022-10-24T22:42:00.159Z,71.58
2022-10-24T22:44:27.028Z,71.53
2022-10-24T22:47:28.016Z,71.51
2022-10-24T22:50:23.206Z,72.05
2022-10-24T22:52:50.540Z,72.06
2022-10-24T22:55:33.865Z,71.91
2022-10-24T22:58:01.274Z,71.75
2022-10-24T23:00:28.059Z,71.49
2022-10-24T23:03:11.124Z,71.19
2022-10-24T23:05:54.481Z,71.46
2022-10-24T23:08:41.596Z,71.33
2022-10-24T23:11:12.411Z,72.86
2022-10-24T23:13:43.065Z,72.10
2022-10-24T23:16:40.130Z,71.65
2022-10-24T23:19:20.376Z,71.63
2022-10-24T23:22:09.437Z,71.82
2022-10-24T23:24:36.222Z,71.96
2022-10-24T23:27:11.558Z,71.68
2022-10-24T23:29:48.207Z,71.74
2022-10-24T23:32:29.406Z,71.35
2022-10-24T23:34:57.821Z,71.38
2022-10-24T23:37:35.428Z,71.24
2022-10-24T23:40:29.241Z,71.35
2022-10-24T23:42:56.924Z,71.45
2022-10-24T23:45:28.514Z,70.80
2022-10-24T23:48:29.320Z,71.00
2022-10-24T23:51:14.170Z,70.94
2022-10-24T23:53:52.978Z,71.23
2022-10-24T23:56:26.275Z,71.14
2022-10-24T23:58:53.430Z,71.44
